sensor_id;sensor_type;location;lat;lon;timestamp;P1;durP1;ratioP1;P2;durP2;ratioP2
18610;SDS011;9435;52.122;5.502;2024-03-02T00:01:35;3.45;;;1.20;;
18610;SDS011;9435;52.122;5.502;2024-03-02T00:04:05;3.95;;;1.50;;
18610;SDS011;9435;52.122;5.502;2024-03-02T00:06:34;3.03;;;1.33;;
18610;SDS011;9435;52.122;5.502;2024-03-02T00:09:01;5.70;;;1.33;;
18610;SDS011;9435;52.122;5.502;2024-03-02T00:11:29;3.28;;;1.20;;
18610;SDS011;9435;52.122;5.502;2024-03-02T00:13:56;4.40;;;1.27;;
18610;SDS011;9435;52.122;5.502;2024-03-02T00:16:23;2.72;;;1.10;;
18610;SDS011;9435;52.122;5.502;2024-03-02T00:18:50;3.80;;;1.20;;
18610;SDS011;9435;52.122;5.502;2024-03-02T00:21:19;5.75;;;1.23;;
18610;SDS011;9435;52.122;5.502;2024-03-02T00:23:47;3.45;;;1.35;;
18610;SDS011;9435;52.122;5.502;2024-03-02T00:26:17;2.80;;;1.10;;
18610;SDS011;9435;52.122;5.502;2024-03-02T00:28:44;4.72;;;1.40;;
18610;SDS011;9435;52.122;5.502;2024-03-02T00:31:11;3.05;;;1.25;;
18610;SDS011;9435;52.122;5.502;2024-03-02T00:33:40;2.53;;;1.20;;
18610;SDS011;9435;52.122;5.502;2024-03-02T00:36:08;4.15;;;1.58;;
18610;SDS011;9435;52.122;5.502;2024-03-02T00:38:42;4.85;;;1.30;;
18610;SDS011;9435;52.122;5.502;2024-03-02T00:41:15;5.78;;;1.35;;
18610;SDS011;9435;52.122;5.502;2024-03-02T00:43:45;3.95;;;1.38;;
18610;SDS011;9435;52.122;5.502;2024-03-02T00:46:16;4.65;;;1.30;;
18610;SDS011;9435;52.122;5.502;2024-03-02T00:48:48;4.45;;;1.50;;
18610;SDS011;9435;52.122;5.502;2024-03-02T00:51:19;4.43;;;1.73;;
18610;SDS011;9435;52.122;5.502;2024-03-02T00:53:48;2.67;;;1.30;;
18610;SDS011;9435;52.122;5.502;2024-03-02T00:56:16;2.58;;;1.02;;
18610;SDS011;9435;52.122;5.502;2024-03-02T00:58:43;3.35;;;1.40;;
18610;SDS011;9435;52.122;5.502;2024-03-02T01:01:10;2.20;;;0.90;;
18610;SDS011;9435;52.122;5.502;2024-03-02T01:03:37;1.83;;;0.80;;
18610;SDS011;9435;52.122;5.502;2024-03-02T01:06:04;2.47;;;0.70;;
18610;SDS011;9435;52.122;5.502;2024-03-02T01:08:32;1.25;;;0.70;;
18610;SDS011;9435;52.122;5.502;2024-03-02T01:11:01;1.20;;;0.68;;
18610;SDS011;9435;52.122;5.502;2024-03-02T01:13:28;1.42;;;0.52;;
18610;SDS011;9435;52.122;5.502;2024-03-02T01:15:56;0.95;;;0.57;;
18610;SDS011;9435;52.122;5.502;2024-03-02T01:18:23;1.23;;;0.55;;
18610;SDS011;9435;52.122;5.502;2024-03-02T01:20:51;2.30;;;0.40;;
18610;SDS011;9435;52.122;5.502;2024-03-02T01:23:20;1.42;;;0.38;;
18610;SDS011;9435;52.122;5.502;2024-03-02T01:25:47;0.90;;;0.40;;
18610;SDS011;9435;52.122;5.502;2024-03-02T01:28:16;0.82;;;0.30;;
18610;SDS011;9435;52.122;5.502;2024-03-02T01:30:43;2.05;;;0.40;;
18610;SDS011;9435;52.122;5.502;2024-03-02T01:33:11;3.55;;;0.57;;
18610;SDS011;9435;52.122;5.502;2024-03-02T01:35:38;0.68;;;0.40;;
18610;SDS011;9435;52.122;5.502;2024-03-02T01:38:05;0.80;;;0.40;;
18610;SDS011;9435;52.122;5.502;2024-03-02T01:40:32;2.67;;;0.40;;
18610;SDS011;9435;52.122;5.502;2024-03-02T01:43:00;0.88;;;0.50;;
18610;SDS011;9435;52.122;5.502;2024-03-02T01:45:29;0.93;;;0.43;;
18610;SDS011;9435;52.122;5.502;2024-03-02T01:47:56;1.00;;;0.40;;
18610;SDS011;9435;52.122;5.502;2024-03-02T01:50:26;2.08;;;0.50;;
18610;SDS011;9435;52.122;5.502;2024-03-02T01:52:55;1.02;;;0.50;;
18610;SDS011;9435;52.122;5.502;2024-03-02T01:55:22;2.15;;;0.50;;
18610;SDS011;9435;52.122;5.502;2024-03-02T01:57:49;1.80;;;0.40;;
18610;SDS011;9435;52.122;5.502;2024-03-02T02:00:17;1.25;;;0.57;;
18610;SDS011;9435;52.122;5.502;2024-03-02T02:02:46;1.13;;;0.50;;
18610;SDS011;9435;52.122;5.502;2024-03-02T02:05:14;2.53;;;0.50;;
18610;SDS011;9435;52.122;5.502;2024-03-02T02:07:42;0.80;;;0.47;;
18610;SDS011;9435;52.122;5.502;2024-03-02T02:10:09;0.93;;;0.50;;
18610;SDS011;9435;52.122;5.502;2024-03-02T02:12:37;0.77;;;0.47;;
18610;SDS011;9435;52.122;5.502;2024-03-02T02:15:07;1.08;;;0.50;;
18610;SDS011;9435;52.122;5.502;2024-03-02T02:17:52;2.50;;;0.55;;
18610;SDS011;9435;52.122;5.502;2024-03-02T02:20:20;0.88;;;0.40;;
18610;SDS011;9435;52.122;5.502;2024-03-02T02:22:58;1.17;;;0.30;;
18610;SDS011;9435;52.122;5.502;2024-03-02T02:25:25;1.20;;;0.50;;
18610;SDS011;9435;52.122;5.502;2024-03-02T02:27:53;0.70;;;0.45;;
18610;SDS011;9435;52.122;5.502;2024-03-02T02:30:20;1.52;;;0.50;;
18610;SDS011;9435;52.122;5.502;2024-03-02T02:32:48;0.90;;;0.50;;
18610;SDS011;9435;52.122;5.502;2024-03-02T02:35:15;0.90;;;0.50;;
18610;SDS011;9435;52.122;5.502;2024-03-02T02:37:43;0.80;;;0.60;;
18610;SDS011;9435;52.122;5.502;2024-03-02T02:40:13;1.42;;;0.60;;
18610;SDS011;9435;52.122;5.502;2024-03-02T02:42:40;3.50;;;0.60;;
18610;SDS011;9435;52.122;5.502;2024-03-02T02:45:07;1.48;;;0.50;;
18610;SDS011;9435;52.122;5.502;2024-03-02T02:47:36;1.13;;;0.60;;
18610;SDS011;9435;52.122;5.502;2024-03-02T02:50:03;2.15;;;0.75;;
18610;SDS011;9435;52.122;5.502;2024-03-02T02:52:31;1.33;;;0.50;;
18610;SDS011;9435;52.122;5.502;2024-03-02T02:55:01;0.98;;;0.60;;
18610;SDS011;9435;52.122;5.502;2024-03-02T02:57:31;1.58;;;0.52;;
18610;SDS011;9435;52.122;5.502;2024-03-02T03:00:01;0.88;;;0.50;;
18610;SDS011;9435;52.122;5.502;2024-03-02T03:02:35;1.30;;;0.50;;
18610;SDS011;9435;52.122;5.502;2024-03-02T03:05:04;2.47;;;0.70;;
18610;SDS011;9435;52.122;5.502;2024-03-02T03:07:32;1.40;;;0.60;;
18610;SDS011;9435;52.122;5.502;2024-03-02T03:10:00;1.10;;;0.60;;
18610;SDS011;9435;52.122;5.502;2024-03-02T03:12:28;1.35;;;0.65;;
18610;SDS011;9435;52.122;5.502;2024-03-02T03:14:56;2.35;;;0.60;;
18610;SDS011;9435;52.122;5.502;2024-03-02T03:17:24;1.13;;;0.50;;
18610;SDS011;9435;52.122;5.502;2024-03-02T03:19:51;1.27;;;0.40;;
18610;SDS011;9435;52.122;5.502;2024-03-02T03:22:18;1.42;;;0.52;;
18610;SDS011;9435;52.122;5.502;2024-03-02T03:24:45;1.55;;;0.60;;
18610;SDS011;9435;52.122;5.502;2024-03-02T03:27:12;1.33;;;0.60;;
18610;SDS011;9435;52.122;5.502;2024-03-02T03:29:39;1.55;;;0.55;;
18610;SDS011;9435;52.122;5.502;2024-03-02T03:32:08;2.25;;;0.60;;
18610;SDS011;9435;52.122;5.502;2024-03-02T03:34:35;1.42;;;0.60;;
18610;SDS011;9435;52.122;5.502;2024-03-02T03:37:02;1.20;;;0.63;;
18610;SDS011;9435;52.122;5.502;2024-03-02T03:39:30;1.40;;;0.60;;
18610;SDS011;9435;52.122;5.502;2024-03-02T03:41:57;1.90;;;0.68;;
18610;SDS011;9435;52.122;5.502;2024-03-02T03:44:24;0.93;;;0.60;;
18610;SDS011;9435;52.122;5.502;2024-03-02T03:46:51;1.30;;;0.60;;
18610;SDS011;9435;52.122;5.502;2024-03-02T03:49:19;2.45;;;0.70;;
18610;SDS011;9435;52.122;5.502;2024-03-02T03:51:46;2.95;;;0.70;;
18610;SDS011;9435;52.122;5.502;2024-03-02T03:54:13;1.23;;;0.60;;
18610;SDS011;9435;52.122;5.502;2024-03-02T03:56:40;1.00;;;0.60;;
18610;SDS011;9435;52.122;5.502;2024-03-02T03:59:07;1.30;;;0.60;;
18610;SDS011;9435;52.122;5.502;2024-03-02T04:01:34;1.30;;;0.63;;
18610;SDS011;9435;52.122;5.502;2024-03-02T04:04:01;1.00;;;0.57;;
18610;SDS011;9435;52.122;5.502;2024-03-02T04:06:30;1.10;;;0.60;;
18610;SDS011;9435;52.122;5.502;2024-03-02T04:08:57;1.85;;;0.70;;
18610;SDS011;9435;52.122;5.502;2024-03-02T04:11:24;1.20;;;0.60;;
18610;SDS011;9435;52.122;5.502;2024-03-02T04:13:51;2.28;;;0.70;;
18610;SDS011;9435;52.122;5.502;2024-03-02T04:16:18;2.92;;;0.88;;
18610;SDS011;9435;52.122;5.502;2024-03-02T04:18:46;2.55;;;0.60;;
18610;SDS011;9435;52.122;5.502;2024-03-02T04:21:13;0.90;;;0.60;;
18610;SDS011;9435;52.122;5.502;2024-03-02T04:23:41;1.25;;;0.60;;
18610;SDS011;9435;52.122;5.502;2024-03-02T04:26:08;1.50;;;0.50;;
18610;SDS011;9435;52.122;5.502;2024-03-02T04:28:35;0.70;;;0.40;;
18610;SDS011;9435;52.122;5.502;2024-03-02T04:31:02;1.00;;;0.50;;
18610;SDS011;9435;52.122;5.502;2024-03-02T04:33:29;1.45;;;0.60;;
18610;SDS011;9435;52.122;5.502;2024-03-02T04:35:56;1.20;;;0.60;;
18610;SDS011;9435;52.122;5.502;2024-03-02T04:38:24;2.83;;;0.60;;
18610;SDS011;9435;52.122;5.502;2024-03-02T04:40:52;1.70;;;0.52;;
18610;SDS011;9435;52.122;5.502;2024-03-02T04:43:19;1.20;;;0.40;;
18610;SDS011;9435;52.122;5.502;2024-03-02T04:45:46;2.03;;;0.50;;
18610;SDS011;9435;52.122;5.502;2024-03-02T04:48:13;0.82;;;0.50;;
18610;SDS011;9435;52.122;5.502;2024-03-02T04:50:40;0.63;;;0.35;;
18610;SDS011;9435;52.122;5.502;2024-03-02T04:53:07;1.40;;;0.40;;
18610;SDS011;9435;52.122;5.502;2024-03-02T04:55:34;1.52;;;0.60;;
18610;SDS011;9435;52.122;5.502;2024-03-02T04:58:30;0.60;;;0.40;;
18610;SDS011;9435;52.122;5.502;2024-03-02T05:00:57;0.52;;;0.40;;
18610;SDS011;9435;52.122;5.502;2024-03-02T05:03:24;1.15;;;0.32;;
18610;SDS011;9435;52.122;5.502;2024-03-02T05:05:51;1.80;;;0.40;;
18610;SDS011;9435;52.122;5.502;2024-03-02T05:08:18;1.13;;;0.50;;
18610;SDS011;9435;52.122;5.502;2024-03-02T05:10:46;1.35;;;0.40;;
18610;SDS011;9435;52.122;5.502;2024-03-02T05:13:13;1.58;;;0.47;;
18610;SDS011;9435;52.122;5.502;2024-03-02T05:15:42;3.45;;;0.45;;
18610;SDS011;9435;52.122;5.502;2024-03-02T05:18:09;1.10;;;0.50;;
18610;SDS011;9435;52.122;5.502;2024-03-02T05:20:36;1.35;;;0.52;;
18610;SDS011;9435;52.122;5.502;2024-03-02T05:23:03;1.63;;;0.50;;
18610;SDS011;9435;52.122;5.502;2024-03-02T05:25:30;1.20;;;0.50;;
18610;SDS011;9435;52.122;5.502;2024-03-02T05:27:57;1.70;;;0.40;;
18610;SDS011;9435;52.122;5.502;2024-03-02T05:30:24;1.80;;;0.50;;
18610;SDS011;9435;52.122;5.502;2024-03-02T05:32:53;3.72;;;0.65;;
18610;SDS011;9435;52.122;5.502;2024-03-02T05:35:20;2.33;;;0.40;;
18610;SDS011;9435;52.122;5.502;2024-03-02T05:37:47;2.80;;;0.52;;
18610;SDS011;9435;52.122;5.502;2024-03-02T05:40:14;1.10;;;0.40;;
18610;SDS011;9435;52.122;5.502;2024-03-02T05:42:41;3.05;;;0.52;;
18610;SDS011;9435;52.122;5.502;2024-03-02T05:45:09;5.32;;;0.70;;
18610;SDS011;9435;52.122;5.502;2024-03-02T05:47:36;3.33;;;0.57;;
18610;SDS011;9435;52.122;5.502;2024-03-02T05:50:05;1.75;;;0.50;;
18610;SDS011;9435;52.122;5.502;2024-03-02T05:52:33;2.45;;;0.70;;
18610;SDS011;9435;52.122;5.502;2024-03-02T05:55:00;2.70;;;0.68;;
18610;SDS011;9435;52.122;5.502;2024-03-02T05:57:27;3.00;;;0.57;;
18610;SDS011;9435;52.122;5.502;2024-03-02T06:00:10;3.40;;;0.60;;
18610;SDS011;9435;52.122;5.502;2024-03-02T06:02:38;4.10;;;0.60;;
18610;SDS011;9435;52.122;5.502;2024-03-02T06:05:07;1.88;;;0.63;;
18610;SDS011;9435;52.122;5.502;2024-03-02T06:07:34;2.08;;;0.50;;
18610;SDS011;9435;52.122;5.502;2024-03-02T06:10:01;4.05;;;0.60;;
18610;SDS011;9435;52.122;5.502;2024-03-02T06:12:30;2.10;;;0.60;;
18610;SDS011;9435;52.122;5.502;2024-03-02T06:14:57;2.55;;;0.68;;
18610;SDS011;9435;52.122;5.502;2024-03-02T06:17:24;1.83;;;0.63;;
18610;SDS011;9435;52.122;5.502;2024-03-02T06:19:51;8.18;;;0.70;;
18610;SDS011;9435;52.122;5.502;2024-03-02T06:22:20;3.92;;;0.70;;
18610;SDS011;9435;52.122;5.502;2024-03-02T06:24:48;6.00;;;0.90;;
18610;SDS011;9435;52.122;5.502;2024-03-02T06:27:15;3.72;;;0.90;;
18610;SDS011;9435;52.122;5.502;2024-03-02T06:29:42;2.78;;;0.88;;
18610;SDS011;9435;52.122;5.502;2024-03-02T06:32:09;4.13;;;0.90;;
18610;SDS011;9435;52.122;5.502;2024-03-02T06:34:36;3.40;;;0.80;;
18610;SDS011;9435;52.122;5.502;2024-03-02T06:37:03;2.13;;;0.80;;
18610;SDS011;9435;52.122;5.502;2024-03-02T06:39:32;2.33;;;0.77;;
18610;SDS011;9435;52.122;5.502;2024-03-02T06:42:01;1.30;;;0.60;;
18610;SDS011;9435;52.122;5.502;2024-03-02T06:44:28;1.15;;;0.52;;
18610;SDS011;9435;52.122;5.502;2024-03-02T06:46:55;3.67;;;0.70;;
18610;SDS011;9435;52.122;5.502;2024-03-02T06:49:22;1.48;;;0.60;;
18610;SDS011;9435;52.122;5.502;2024-03-02T06:51:49;1.90;;;0.60;;
18610;SDS011;9435;52.122;5.502;2024-03-02T06:54:16;3.95;;;0.75;;
18610;SDS011;9435;52.122;5.502;2024-03-02T06:56:45;3.88;;;0.60;;
18610;SDS011;9435;52.122;5.502;2024-03-02T06:59:12;3.50;;;0.70;;
18610;SDS011;9435;52.122;5.502;2024-03-02T07:01:39;2.30;;;0.90;;
18610;SDS011;9435;52.122;5.502;2024-03-02T07:04:07;4.57;;;0.68;;
18610;SDS011;9435;52.122;5.502;2024-03-02T07:06:34;2.28;;;0.63;;
18610;SDS011;9435;52.122;5.502;2024-03-02T07:09:01;2.17;;;0.70;;
18610;SDS011;9435;52.122;5.502;2024-03-02T07:11:28;1.75;;;0.63;;
18610;SDS011;9435;52.122;5.502;2024-03-02T07:13:56;2.05;;;0.90;;
18610;SDS011;9435;52.122;5.502;2024-03-02T07:16:23;3.75;;;0.93;;
18610;SDS011;9435;52.122;5.502;2024-03-02T07:18:55;1.83;;;0.80;;
18610;SDS011;9435;52.122;5.502;2024-03-02T07:21:22;2.05;;;0.90;;
18610;SDS011;9435;52.122;5.502;2024-03-02T07:23:49;2.33;;;0.70;;
18610;SDS011;9435;52.122;5.502;2024-03-02T07:26:17;3.53;;;0.80;;
18610;SDS011;9435;52.122;5.502;2024-03-02T07:28:45;2.15;;;0.70;;
18610;SDS011;9435;52.122;5.502;2024-03-02T07:31:15;2.55;;;1.30;;
18610;SDS011;9435;52.122;5.502;2024-03-02T07:33:43;1.27;;;0.73;;
18610;SDS011;9435;52.122;5.502;2024-03-02T07:36:11;3.47;;;0.70;;
18610;SDS011;9435;52.122;5.502;2024-03-02T07:38:38;3.30;;;0.73;;
18610;SDS011;9435;52.122;5.502;2024-03-02T07:41:06;1.60;;;0.70;;
18610;SDS011;9435;52.122;5.502;2024-03-02T07:43:33;3.33;;;0.70;;
18610;SDS011;9435;52.122;5.502;2024-03-02T07:46:01;1.75;;;0.60;;
18610;SDS011;9435;52.122;5.502;2024-03-02T07:48:30;3.65;;;0.60;;
18610;SDS011;9435;52.122;5.502;2024-03-02T07:50:57;3.55;;;0.70;;
18610;SDS011;9435;52.122;5.502;2024-03-02T07:53:24;5.10;;;0.80;;
18610;SDS011;9435;52.122;5.502;2024-03-02T07:55:51;4.40;;;0.75;;
18610;SDS011;9435;52.122;5.502;2024-03-02T07:58:18;2.92;;;0.63;;
18610;SDS011;9435;52.122;5.502;2024-03-02T08:00:46;1.50;;;0.50;;
18610;SDS011;9435;52.122;5.502;2024-03-02T08:03:13;3.50;;;0.60;;
18610;SDS011;9435;52.122;5.502;2024-03-02T08:05:42;2.08;;;0.50;;
18610;SDS011;9435;52.122;5.502;2024-03-02T08:08:11;1.70;;;0.70;;
18610;SDS011;9435;52.122;5.502;2024-03-02T08:10:38;3.58;;;0.60;;
18610;SDS011;9435;52.122;5.502;2024-03-02T08:13:05;2.45;;;0.70;;
18610;SDS011;9435;52.122;5.502;2024-03-02T08:15:32;2.25;;;0.60;;
18610;SDS011;9435;52.122;5.502;2024-03-02T08:17:59;2.25;;;0.70;;
18610;SDS011;9435;52.122;5.502;2024-03-02T08:20:26;4.03;;;0.50;;
18610;SDS011;9435;52.122;5.502;2024-03-02T08:22:55;2.28;;;0.60;;
18610;SDS011;9435;52.122;5.502;2024-03-02T08:25:22;2.95;;;0.43;;
18610;SDS011;9435;52.122;5.502;2024-03-02T08:27:49;3.47;;;0.70;;
18610;SDS011;9435;52.122;5.502;2024-03-02T08:30:16;6.25;;;0.80;;
18610;SDS011;9435;52.122;5.502;2024-03-02T08:32:44;2.30;;;0.57;;
18610;SDS011;9435;52.122;5.502;2024-03-02T08:35:12;3.72;;;0.90;;
18610;SDS011;9435;52.122;5.502;2024-03-02T08:37:39;3.30;;;0.60;;
18610;SDS011;9435;52.122;5.502;2024-03-02T08:40:10;4.20;;;0.70;;
18610;SDS011;9435;52.122;5.502;2024-03-02T08:42:37;3.78;;;0.85;;
18610;SDS011;9435;52.122;5.502;2024-03-02T08:45:05;2.60;;;0.52;;
18610;SDS011;9435;52.122;5.502;2024-03-02T08:47:33;1.88;;;0.32;;
18610;SDS011;9435;52.122;5.502;2024-03-02T08:50:00;2.20;;;0.65;;
18610;SDS011;9435;52.122;5.502;2024-03-02T08:52:29;3.17;;;0.70;;
18610;SDS011;9435;52.122;5.502;2024-03-02T08:54:56;4.07;;;0.70;;
18610;SDS011;9435;52.122;5.502;2024-03-02T08:57:24;1.77;;;0.50;;
18610;SDS011;9435;52.122;5.502;2024-03-02T08:59:53;2.15;;;0.50;;
18610;SDS011;9435;52.122;5.502;2024-03-02T09:02:20;4.55;;;0.77;;
18610;SDS011;9435;52.122;5.502;2024-03-02T09:04:47;3.00;;;0.90;;
18610;SDS011;9435;52.122;5.502;2024-03-02T09:07:15;2.97;;;0.55;;
18610;SDS011;9435;52.122;5.502;2024-03-02T09:09:43;4.85;;;0.82;;
18610;SDS011;9435;52.122;5.502;2024-03-02T09:12:10;2.42;;;0.55;;
18610;SDS011;9435;52.122;5.502;2024-03-02T09:14:39;4.13;;;0.65;;
18610;SDS011;9435;52.122;5.502;2024-03-02T09:17:07;4.38;;;0.73;;
18610;SDS011;9435;52.122;5.502;2024-03-02T09:19:36;6.15;;;0.90;;
18610;SDS011;9435;52.122;5.502;2024-03-02T09:22:03;4.63;;;0.60;;
18610;SDS011;9435;52.122;5.502;2024-03-02T09:24:31;5.15;;;0.80;;
18610;SDS011;9435;52.122;5.502;2024-03-02T09:26:58;4.93;;;0.80;;
18610;SDS011;9435;52.122;5.502;2024-03-02T09:29:25;4.60;;;0.73;;
18610;SDS011;9435;52.122;5.502;2024-03-02T09:31:54;3.67;;;0.70;;
18610;SDS011;9435;52.122;5.502;2024-03-02T09:34:21;4.47;;;0.93;;
18610;SDS011;9435;52.122;5.502;2024-03-02T09:36:48;2.85;;;0.77;;
18610;SDS011;9435;52.122;5.502;2024-03-02T09:39:16;5.78;;;0.77;;
18610;SDS011;9435;52.122;5.502;2024-03-02T09:41:44;5.00;;;0.70;;
18610;SDS011;9435;52.122;5.502;2024-03-02T09:44:11;4.43;;;0.70;;
18610;SDS011;9435;52.122;5.502;2024-03-02T09:46:38;8.10;;;0.90;;
18610;SDS011;9435;52.122;5.502;2024-03-02T09:49:07;5.40;;;0.88;;
18610;SDS011;9435;52.122;5.502;2024-03-02T09:51:34;3.70;;;0.80;;
18610;SDS011;9435;52.122;5.502;2024-03-02T09:54:01;4.20;;;0.90;;
18610;SDS011;9435;52.122;5.502;2024-03-02T09:56:28;4.18;;;0.75;;
18610;SDS011;9435;52.122;5.502;2024-03-02T09:58:56;7.65;;;1.05;;
18610;SDS011;9435;52.122;5.502;2024-03-02T10:01:23;3.83;;;0.70;;
18610;SDS011;9435;52.122;5.502;2024-03-02T10:03:50;5.63;;;0.80;;
18610;SDS011;9435;52.122;5.502;2024-03-02T10:06:23;4.82;;;0.85;;
18610;SDS011;9435;52.122;5.502;2024-03-02T10:08:50;3.75;;;0.60;;
18610;SDS011;9435;52.122;5.502;2024-03-02T10:11:25;5.38;;;0.90;;
18610;SDS011;9435;52.122;5.502;2024-03-02T10:14:07;3.30;;;0.73;;
18610;SDS011;9435;52.122;5.502;2024-03-02T10:16:35;6.25;;;0.93;;
18610;SDS011;9435;52.122;5.502;2024-03-02T10:19:16;4.82;;;0.85;;
18610;SDS011;9435;52.122;5.502;2024-03-02T10:21:45;2.70;;;0.77;;
18610;SDS011;9435;52.122;5.502;2024-03-02T10:24:13;4.35;;;0.73;;
18610;SDS011;9435;52.122;5.502;2024-03-02T10:26:40;3.90;;;0.80;;
18610;SDS011;9435;52.122;5.502;2024-03-02T10:29:08;6.43;;;0.77;;
18610;SDS011;9435;52.122;5.502;2024-03-02T10:31:36;7.32;;;0.80;;
18610;SDS011;9435;52.122;5.502;2024-03-02T10:34:04;6.78;;;0.77;;
18610;SDS011;9435;52.122;5.502;2024-03-02T10:36:31;2.70;;;0.70;;
18610;SDS011;9435;52.122;5.502;2024-03-02T10:39:02;4.25;;;0.70;;
18610;SDS011;9435;52.122;5.502;2024-03-02T10:41:31;6.18;;;0.85;;
18610;SDS011;9435;52.122;5.502;2024-03-02T10:44:01;5.50;;;0.65;;
18610;SDS011;9435;52.122;5.502;2024-03-02T10:46:30;5.28;;;0.80;;
18610;SDS011;9435;52.122;5.502;2024-03-02T10:48:57;3.65;;;0.70;;
18610;SDS011;9435;52.122;5.502;2024-03-02T10:51:25;2.78;;;0.68;;
18610;SDS011;9435;52.122;5.502;2024-03-02T10:53:54;3.08;;;0.70;;
18610;SDS011;9435;52.122;5.502;2024-03-02T10:56:25;5.82;;;0.90;;
18610;SDS011;9435;52.122;5.502;2024-03-02T10:58:55;3.25;;;0.45;;
18610;SDS011;9435;52.122;5.502;2024-03-02T11:01:29;4.55;;;0.70;;
18610;SDS011;9435;52.122;5.502;2024-03-02T11:03:58;4.03;;;0.63;;
18610;SDS011;9435;52.122;5.502;2024-03-02T11:06:27;3.45;;;0.52;;
18610;SDS011;9435;52.122;5.502;2024-03-02T11:08:58;4.78;;;0.70;;
18610;SDS011;9435;52.122;5.502;2024-03-02T11:11:32;4.10;;;0.68;;
18610;SDS011;9435;52.122;5.502;2024-03-02T11:14:03;5.05;;;0.98;;
18610;SDS011;9435;52.122;5.502;2024-03-02T11:16:34;3.80;;;0.70;;
18610;SDS011;9435;52.122;5.502;2024-03-02T11:19:04;5.75;;;0.80;;
18610;SDS011;9435;52.122;5.502;2024-03-02T11:21:33;5.13;;;0.85;;
18610;SDS011;9435;52.122;5.502;2024-03-02T11:24:01;2.72;;;0.80;;
18610;SDS011;9435;52.122;5.502;2024-03-02T11:27:02;6.80;;;0.90;;
18610;SDS011;9435;52.122;5.502;2024-03-02T11:29:45;6.13;;;0.82;;
18610;SDS011;9435;52.122;5.502;2024-03-02T11:32:13;3.97;;;0.75;;
18610;SDS011;9435;52.122;5.502;2024-03-02T11:34:41;3.67;;;0.77;;
18610;SDS011;9435;52.122;5.502;2024-03-02T11:37:12;3.97;;;0.70;;
18610;SDS011;9435;52.122;5.502;2024-03-02T11:39:40;4.35;;;0.90;;
18610;SDS011;9435;52.122;5.502;2024-03-02T11:42:08;3.63;;;0.70;;
18610;SDS011;9435;52.122;5.502;2024-03-02T11:44:37;3.08;;;0.70;;
18610;SDS011;9435;52.122;5.502;2024-03-02T11:47:05;2.78;;;0.55;;
18610;SDS011;9435;52.122;5.502;2024-03-02T11:49:37;3.55;;;0.80;;
18610;SDS011;9435;52.122;5.502;2024-03-02T11:52:05;3.80;;;0.68;;
18610;SDS011;9435;52.122;5.502;2024-03-02T11:54:34;2.97;;;0.60;;
18610;SDS011;9435;52.122;5.502;2024-03-02T11:57:04;3.47;;;0.70;;
18610;SDS011;9435;52.122;5.502;2024-03-02T11:59:33;4.15;;;0.55;;
18610;SDS011;9435;52.122;5.502;2024-03-02T12:02:01;4.75;;;0.90;;
18610;SDS011;9435;52.122;5.502;2024-03-02T12:04:29;3.97;;;0.68;;
18610;SDS011;9435;52.122;5.502;2024-03-02T12:06:57;5.65;;;0.80;;
18610;SDS011;9435;52.122;5.502;2024-03-02T12:09:28;6.97;;;0.90;;
18610;SDS011;9435;52.122;5.502;2024-03-02T12:12:03;5.30;;;0.82;;
18610;SDS011;9435;52.122;5.502;2024-03-02T12:14:31;4.80;;;0.82;;
18610;SDS011;9435;52.122;5.502;2024-03-02T12:17:00;3.70;;;0.82;;
18610;SDS011;9435;52.122;5.502;2024-03-02T12:19:28;4.80;;;0.90;;
18610;SDS011;9435;52.122;5.502;2024-03-02T12:21:55;3.92;;;0.73;;
18610;SDS011;9435;52.122;5.502;2024-03-02T12:24:22;5.72;;;0.90;;
18610;SDS011;9435;52.122;5.502;2024-03-02T12:26:50;5.82;;;0.90;;
18610;SDS011;9435;52.122;5.502;2024-03-02T12:29:18;3.38;;;0.90;;
18610;SDS011;9435;52.122;5.502;2024-03-02T12:31:47;3.50;;;0.80;;
18610;SDS011;9435;52.122;5.502;2024-03-02T12:34:17;4.63;;;0.85;;
18610;SDS011;9435;52.122;5.502;2024-03-02T12:36:45;4.28;;;0.85;;
18610;SDS011;9435;52.122;5.502;2024-03-02T12:39:14;2.75;;;0.90;;
18610;SDS011;9435;52.122;5.502;2024-03-02T12:41:42;2.83;;;0.73;;
18610;SDS011;9435;52.122;5.502;2024-03-02T12:44:09;2.85;;;0.80;;
18610;SDS011;9435;52.122;5.502;2024-03-02T12:46:36;3.63;;;0.68;;
18610;SDS011;9435;52.122;5.502;2024-03-02T12:49:10;2.83;;;0.77;;
18610;SDS011;9435;52.122;5.502;2024-03-02T12:51:40;2.97;;;0.90;;
18610;SDS011;9435;52.122;5.502;2024-03-02T12:54:08;5.43;;;0.80;;
18610;SDS011;9435;52.122;5.502;2024-03-02T12:56:36;3.55;;;1.02;;
18610;SDS011;9435;52.122;5.502;2024-03-02T12:59:03;4.88;;;1.10;;
18610;SDS011;9435;52.122;5.502;2024-03-02T13:01:31;4.43;;;1.05;;
18610;SDS011;9435;52.122;5.502;2024-03-02T13:03:58;3.28;;;1.20;;
18610;SDS011;9435;52.122;5.502;2024-03-02T13:06:25;3.70;;;1.00;;
18610;SDS011;9435;52.122;5.502;2024-03-02T13:08:55;3.00;;;0.90;;
18610;SDS011;9435;52.122;5.502;2024-03-02T13:11:22;3.53;;;0.93;;
18610;SDS011;9435;52.122;5.502;2024-03-02T13:13:50;6.22;;;1.17;;
18610;SDS011;9435;52.122;5.502;2024-03-02T13:16:18;4.07;;;0.80;;
18610;SDS011;9435;52.122;5.502;2024-03-02T13:18:46;2.65;;;0.77;;
18610;SDS011;9435;52.122;5.502;2024-03-02T13:21:13;3.60;;;1.00;;
18610;SDS011;9435;52.122;5.502;2024-03-02T13:23:40;4.32;;;1.20;;
18610;SDS011;9435;52.122;5.502;2024-03-02T13:26:09;5.55;;;0.85;;
18610;SDS011;9435;52.122;5.502;2024-03-02T13:28:37;3.15;;;1.17;;
18610;SDS011;9435;52.122;5.502;2024-03-02T13:31:05;7.90;;;1.25;;
18610;SDS011;9435;52.122;5.502;2024-03-02T13:33:32;3.33;;;0.85;;
18610;SDS011;9435;52.122;5.502;2024-03-02T13:35:59;3.80;;;1.00;;
18610;SDS011;9435;52.122;5.502;2024-03-02T13:38:28;4.78;;;1.20;;
18610;SDS011;9435;52.122;5.502;2024-03-02T13:40:55;5.13;;;1.00;;
18610;SDS011;9435;52.122;5.502;2024-03-02T13:43:23;4.55;;;1.25;;
18610;SDS011;9435;52.122;5.502;2024-03-02T13:45:51;3.05;;;0.90;;
18610;SDS011;9435;52.122;5.502;2024-03-02T13:48:18;5.38;;;1.30;;
18610;SDS011;9435;52.122;5.502;2024-03-02T13:50:46;5.40;;;1.00;;
18610;SDS011;9435;52.122;5.502;2024-03-02T13:53:13;4.15;;;1.00;;
18610;SDS011;9435;52.122;5.502;2024-03-02T13:55:43;2.70;;;1.00;;
18610;SDS011;9435;52.122;5.502;2024-03-02T13:58:10;5.18;;;1.10;;
18610;SDS011;9435;52.122;5.502;2024-03-02T14:00:39;6.25;;;1.20;;
18610;SDS011;9435;52.122;5.502;2024-03-02T14:03:06;4.00;;;1.17;;
18610;SDS011;9435;52.122;5.502;2024-03-02T14:05:33;5.78;;;1.25;;
18610;SDS011;9435;52.122;5.502;2024-03-02T14:08:02;5.00;;;1.20;;
18610;SDS011;9435;52.122;5.502;2024-03-02T14:10:30;4.10;;;0.88;;
18610;SDS011;9435;52.122;5.502;2024-03-02T14:12:57;5.28;;;1.02;;
18610;SDS011;9435;52.122;5.502;2024-03-02T14:15:24;2.83;;;1.00;;
18610;SDS011;9435;52.122;5.502;2024-03-02T14:17:52;5.93;;;1.13;;
18610;SDS011;9435;52.122;5.502;2024-03-02T14:20:19;4.03;;;1.13;;
18610;SDS011;9435;52.122;5.502;2024-03-02T14:22:48;4.32;;;1.08;;
18610;SDS011;9435;52.122;5.502;2024-03-02T14:25:15;3.33;;;1.00;;
18610;SDS011;9435;52.122;5.502;2024-03-02T14:27:44;2.58;;;1.00;;
18610;SDS011;9435;52.122;5.502;2024-03-02T14:30:12;3.17;;;1.00;;
18610;SDS011;9435;52.122;5.502;2024-03-02T14:32:39;2.58;;;0.90;;
18610;SDS011;9435;52.122;5.502;2024-03-02T14:35:08;4.20;;;0.98;;
18610;SDS011;9435;52.122;5.502;2024-03-02T14:37:36;4.20;;;1.20;;
18610;SDS011;9435;52.122;5.502;2024-03-02T14:40:04;5.95;;;1.30;;
18610;SDS011;9435;52.122;5.502;2024-03-02T14:42:34;5.93;;;1.67;;
18610;SDS011;9435;52.122;5.502;2024-03-02T14:45:02;4.63;;;1.25;;
18610;SDS011;9435;52.122;5.502;2024-03-02T14:47:31;3.72;;;1.00;;
18610;SDS011;9435;52.122;5.502;2024-03-02T14:50:00;3.45;;;1.20;;
18610;SDS011;9435;52.122;5.502;2024-03-02T14:52:32;4.65;;;1.33;;
18610;SDS011;9435;52.122;5.502;2024-03-02T14:55:00;3.58;;;1.00;;
18610;SDS011;9435;52.122;5.502;2024-03-02T14:57:32;3.88;;;1.20;;
18610;SDS011;9435;52.122;5.502;2024-03-02T14:59:59;3.00;;;1.45;;
18610;SDS011;9435;52.122;5.502;2024-03-02T15:02:26;3.72;;;1.33;;
18610;SDS011;9435;52.122;5.502;2024-03-02T15:04:53;5.43;;;1.63;;
18610;SDS011;9435;52.122;5.502;2024-03-02T15:07:21;3.28;;;1.30;;